Time;durP1;ratioP1;P1;durP2;ratioP2;P2;SDS_P1;SDS_P2;PMS_P1;PMS_P2;Temp;Humidity;BMP_temperature;BMP_pressure;BME280_temperature;BME280_humidity;BME280_pressure;Samples;Min_cycle;Max_cycle;Signal;HPM_P1;HPM_P2
2023/02/13 00:00:23;;;;;;;;;;;;;;;17.79;63.71;103024.78;2307364;76;51530;-73
2023/02/13 00:03:24;;;;;;;;;;;;;;;17.79;63.76;103014.06;2313411;76;50661;-73
2023/02/13 00:06:26;;;;;;;;;;;;;;;17.80;63.67;103017.13;2308127;76;52051;-74
2023/02/13 00:09:27;;;;;;;;;;;;;;;17.81;63.58;103022.84;2313710;76;50659;-73
2023/02/13 00:12:29;;;;;;;;;;;;;;;17.81;63.54;103025.52;2307674;76;51433;-73
2023/02/13 00:15:31;;;;;;;;;;;;;;;17.79;63.70;103021.22;2308019;76;51624;-73
2023/02/13 00:18:33;;;;;;;;;;;;;;;17.79;63.69;103031.94;2282255;77;51755;-73
2023/02/13 00:21:35;;;;;;;;;;;;;;;17.77;63.71;103027.17;2308117;76;49779;-73
2023/02/13 00:24:36;;;;;;;;;;;;;;;17.76;63.80;103022.31;2308094;76;50604;-73
2023/02/13 00:27:38;;;;;;;;;;;;;;;17.75;63.76;103026.44;2299516;76;51558;-73
2023/02/13 00:30:40;;;;;;;;;;;;;;;17.74;63.84;103028.27;2282067;77;51608;-73
2023/02/13 00:33:41;;;;;;;;;;;;;;;17.76;63.75;103022.31;2313170;76;51466;-73
2023/02/13 00:36:43;;;;;;;;;;;;;;;17.79;63.74;103022.56;2313377;76;51476;-73
2023/02/13 00:39:44;;;;;;;;;;;;;;;17.80;63.71;103023.83;2313240;77;50481;-73
2023/02/13 00:42:46;;;;;;;;;;;;;;;17.81;63.63;103020.16;2313071;77;50258;-74
2023/02/13 00:45:48;;;;;;;;;;;;;;;17.82;63.83;103020.52;2307910;76;50298;-74
2023/02/13 00:48:49;;;;;;;;;;;;;;;17.83;63.63;103024.07;2313377;77;50164;-73
2023/02/13 00:51:51;;;;;;;;;;;;;;;17.79;63.81;103020.77;2308214;76;50226;-73
2023/02/13 00:54:52;;;;;;;;;;;;;;;17.73;63.90;103015.02;2282236;76;51601;-74
2023/02/13 00:57:54;;;;;;;;;;;;;;;17.74;63.86;103018.05;2302078;76;51511;-73
2023/02/13 01:00:55;;;;;;;;;;;;;;;17.72;63.94;103018.65;2307957;76;51589;-74
2023/02/13 01:03:57;;;;;;;;;;;;;;;17.70;64.06;103016.57;2313299;76;51507;-73
2023/02/13 01:06:58;;;;;;;;;;;;;;;17.72;64.01;103011.95;2307874;76;51048;-73
2023/02/13 01:10:00;;;;;;;;;;;;;;;17.74;63.90;103022.91;2308023;76;50341;-75
2023/02/13 01:13:02;;;;;;;;;;;;;;;17.76;63.87;103026.33;2313202;76;50298;-74
2023/02/13 01:16:03;;;;;;;;;;;;;;;17.79;63.77;103022.10;2308235;76;50687;-74
2023/02/13 01:19:05;;;;;;;;;;;;;;;17.78;63.80;103024.39;2308394;76;51067;-75
2023/02/13 01:22:07;;;;;;;;;;;;;;;17.77;63.79;103024.01;2309591;76;51455;-74
2023/02/13 01:25:09;;;;;;;;;;;;;;;17.76;63.91;103029.01;2314336;76;51503;-74
2023/02/13 01:28:10;;;;;;;;;;;;;;;17.75;63.95;103022.42;2313131;75;51506;-74
2023/02/13 01:31:12;;;;;;;;;;;;;;;17.73;63.89;103019.88;2284920;77;51596;-74
2023/02/13 01:34:13;;;;;;;;;;;;;;;17.68;64.05;103021.22;2309579;76;50238;-74
2023/02/13 01:37:15;;;;;;;;;;;;;;;17.71;64.03;103019.63;2314384;77;50186;-74
2023/02/13 01:40:17;;;;;;;;;;;;;;;17.71;64.08;103019.63;2314080;76;50388;-74
2023/02/13 01:43:18;;;;;;;;;;;;;;;17.75;63.97;103015.73;2317399;77;50699;-75
2023/02/13 01:46:31;;;;;;;;;;;;;;;17.76;63.97;103017.45;2308565;76;51732;-74
2023/02/13 01:49:32;;;;;;;;;;;;;;;17.80;63.88;103013.58;2314537;76;51493;-74
2023/02/13 01:52:34;;;;;;;;;;;;;;;17.78;63.89;103018.19;2312783;76;50671;-73
2023/02/13 01:55:38;;;;;;;;;;;;;;;17.76;63.91;103013.44;2327045;76;50693;-73
2023/02/13 01:58:39;;;;;;;;;;;;;;;17.72;63.94;103011.95;2295741;76;51779;-73
2023/02/13 02:01:41;;;;;;;;;;;;;;;17.70;64.07;103011.22;2285738;77;50264;-73
2023/02/13 02:04:43;;;;;;;;;;;;;;;17.63;64.25;103006.34;2286532;77;50744;-73
2023/02/13 02:07:44;;;;;;;;;;;;;;;17.67;64.14;103008.29;2290332;76;50666;-73
2023/02/13 02:14:55;;;;;;;;;;;;;;;17.69;64.10;103009.03;2290512;76;22373;-73
2023/02/13 02:17:56;;;;;;;;;;;;;;;17.74;64.08;103015.38;2289205;76;50445;-73
2023/02/13 02:21:05;;;;;;;;;;;;;;;17.75;64.05;103013.05;2285208;76;49848;-74
2023/02/13 02:24:24;;;;;;;;;;;;;;;17.75;64.04;103017.06;2274337;77;52497;-73
2023/02/13 02:27:40;;;;;;;;;;;;;;;17.74;64.07;103016.71;2316574;76;51410;-73
2023/02/13 02:30:46;;;;;;;;;;;;;;;17.72;64.15;103013.30;2289144;77;51506;-74
2023/02/13 02:33:52;;;;;;;;;;;;;;;17.66;64.39;103015.12;2290059;75;50491;-74
2023/02/13 02:37:07;;;;;;;;;;;;;;;17.64;64.45;103021.43;2284684;76;51421;-74
2023/02/13 02:40:20;;;;;;;;;;;;;;;17.66;64.51;103021.81;2287639;76;51442;-74
2023/02/13 02:43:26;;;;;;;;;;;;;;;17.62;64.59;103023.40;2289124;76;50710;-74
2023/02/13 02:46:29;;;;;;;;;;;;;;;17.68;64.73;103015.86;2290584;76;51437;-73
2023/02/13 02:53:10;;;;;;;;;;;;;;;17.67;64.56;103026.19;2289997;77;22268;-74
2023/02/13 02:56:18;;;;;;;;;;;;;;;17.72;64.53;103022.17;2304985;75;50340;-74
2023/02/13 03:06:12;;;;;;;;;;;;;;;17.69;64.55;103025.09;2316558;76;23504;-75
2023/02/13 03:22:51;;;;;;;;;;;;;;;17.66;64.46;103027.17;2320360;76;23164;-73
2023/02/13 03:26:03;;;;;;;;;;;;;;;17.67;64.39;103028.38;2319946;75;51519;-74
2023/02/13 03:32:28;;;;;;;;;;;;;;;17.64;64.58;103028.61;2319628;76;23493;-74
2023/02/13 03:38:55;;;;;;;;;;;;;;;17.66;64.61;103033.86;2319712;76;23045;-73
2023/02/13 03:41:58;;;;;;;;;;;;;;;17.66;64.54;103028.52;2294729;76;51971;-73
2023/02/13 03:51:58;;;;;;;;;;;;;;;17.67;64.38;103021.67;2319717;76;24328;-74
2023/02/13 04:01:43;;;;;;;;;;;;;;;17.63;64.42;103014.88;2322479;75;22287;-73
2023/02/13 04:05:04;;;;;;;;;;;;;;;17.59;64.52;103019.59;2322119;76;49962;-74
2023/02/13 04:08:06;;;;;;;;;;;;;;;17.57;64.59;103017.55;2330927;75;49722;-73
2023/02/13 04:11:18;;;;;;;;;;;;;;;17.59;64.59;103012.05;2312733;76;50639;-75
2023/02/13 04:14:21;;;;;;;;;;;;;;;17.58;64.52;103004.52;2330462;76;51563;-73
2023/02/13 04:17:24;;;;;;;;;;;;;;;17.58;64.48;103011.20;2330453;76;50326;-73
2023/02/13 04:20:28;;;;;;;;;;;;;;;17.56;64.63;103011.80;2313088;76;51726;-74
2023/02/13 04:23:30;;;;;;;;;;;;;;;17.61;64.48;103006.10;2312838;76;50677;-74
2023/02/13 04:26:33;;;;;;;;;;;;;;;17.64;64.37;103008.05;2330606;76;50262;-74
2023/02/13 04:29:34;;;;;;;;;;;;;;;17.64;64.36;103010.72;2318692;76;51642;-75
2023/02/13 04:32:36;;;;;;;;;;;;;;;17.64;64.31;103013.39;2336628;75;52281;-75
2023/02/13 04:35:38;;;;;;;;;;;;;;;17.67;64.25;103010.13;2322877;76;50428;-75
2023/02/13 04:38:39;;;;;;;;;;;;;;;17.69;64.25;103006.84;2323538;76;50355;-75
2023/02/13 04:41:41;;;;;;;;;;;;;;;17.70;64.15;103004.52;2316617;76;50365;-74
2023/02/13 04:44:42;;;;;;;;;;;;;;;17.70;64.19;103000.50;2312912;76;50611;-74
2023/02/13 04:47:45;;;;;;;;;;;;;;;17.70;64.19;103000.50;2309264;76;51538;-73
2023/02/13 04:50:47;;;;;;;;;;;;;;;17.68;64.19;102996.63;2321072;76;51484;-74
2023/02/13 04:53:49;;;;;;;;;;;;;;;17.62;64.32;102989.94;2309094;76;50623;-73
2023/02/13 04:56:50;;;;;;;;;;;;;;;17.62;64.37;102992.61;2314859;76;52312;-73
2023/02/13 04:59:52;;;;;;;;;;;;;;;17.62;64.41;102989.94;2314447;75;51444;-73
2023/02/13 05:02:53;;;;;;;;;;;;;;;17.64;64.33;102981.27;2315839;76;50112;-73
2023/02/13 05:05:55;;;;;;;;;;;;;;;17.67;64.41;102992.23;2321451;76;50323;-72
2023/02/13 05:08:56;;;;;;;;;;;;;;;17.70;64.21;102993.81;2283560;76;51686;-73
2023/02/13 05:11:58;;;;;;;;;;;;;;;17.70;64.16;102992.47;2321259;75;50691;-73
2023/02/13 05:15:00;;;;;;;;;;;;;;;17.67;64.18;103000.26;2321377;76;51566;-73
2023/02/13 05:18:01;;;;;;;;;;;;;;;17.66;64.25;102996.37;2321383;76;51530;-73
2023/02/13 05:24:22;;;;;;;;;;;;;;;17.61;64.36;103002.94;2311192;76;22212;-73
2023/02/13 05:27:24;;;;;;;;;;;;;;;17.62;64.47;103003.78;2300004;75;50722;-74
2023/02/13 05:30:25;;;;;;;;;;;;;;;17.62;64.50;103005.12;2273930;76;51460;-75
2023/02/13 05:33:27;;;;;;;;;;;;;;;17.63;64.35;103003.67;2247988;77;50023;-75
2023/02/13 05:36:29;;;;;;;;;;;;;;;17.64;64.33;103005.36;2273199;77;51567;-74
2023/02/13 05:39:30;;;;;;;;;;;;;;;17.65;64.32;103006.24;2273193;77;51413;-73
2023/02/13 05:42:32;;;;;;;;;;;;;;;17.67;64.32;103007.45;2273232;77;50240;-72
2023/02/13 05:45:33;;;;;;;;;;;;;;;17.70;64.15;103004.06;2248082;77;51167;-72
2023/02/13 05:48:35;;;;;;;;;;;;;;;17.71;64.03;103008.43;2271482;78;50619;-72
2023/02/13 05:51:36;;;;;;;;;;;;;;;17.71;64.01;103005.75;2271527;77;50260;-74
2023/02/13 05:54:38;;;;;;;;;;;;;;;17.72;65.28;103011.95;2271283;78;50327;-73
2023/02/13 05:57:40;;;;;;;;;;;;;;;17.71;65.56;103018.30;2290166;76;52200;-76
2023/02/13 06:00:42;;;;;;;;;;;;;;;17.71;65.04;103024.50;2282460;75;50211;-76
2023/02/13 06:03:43;;;;;;;;;;;;;;;17.68;64.64;103023.89;2301440;76;50285;-75
2023/02/13 06:06:45;;;;;;;;;;;;;;;17.68;64.58;103020.73;2277273;76;51148;-75
2023/02/13 06:09:46;;;;;;;;;;;;;;;17.68;64.73;103026.57;2296251;76;51668;-75
2023/02/13 06:12:48;;;;;;;;;;;;;;;17.72;64.52;103030.70;2334478;76;51590;-76
2023/02/13 06:15:50;;;;;;;;;;;;;;;17.70;64.78;103028.62;2334929;76;51871;-75
2023/02/13 06:18:51;;;;;;;;;;;;;;;17.68;64.51;103028.75;2334829;76;51455;-76
2023/02/13 06:21:53;;;;;;;;;;;;;;;17.67;64.38;103032.39;2334908;75;51707;-77
2023/02/13 06:24:54;;;;;;;;;;;;;;;17.69;64.28;103036.30;2334890;76;50102;-77
2023/02/13 06:27:56;;;;;;;;;;;;;;;17.67;64.24;103032.39;2315647;76;50186;-77
2023/02/13 06:30:58;;;;;;;;;;;;;;;17.67;64.30;103033.73;2272134;77;51613;-77
2023/02/13 06:34:00;;;;;;;;;;;;;;;17.66;64.60;103029.84;2261948;76;51625;-78
2023/02/13 06:37:01;;;;;;;;;;;;;;;17.64;65.19;103031.30;2321613;76;50840;-76
2023/02/13 06:40:03;;;;;;;;;;;;;;;17.64;66.51;103030.80;2321737;76;50625;-77
2023/02/13 06:43:05;;;;;;;;;;;;;;;17.67;65.99;103034.22;2321526;76;51667;-77
2023/02/13 06:46:07;;;;;;;;;;;;;;;17.69;65.87;103032.28;2321301;76;52501;-77
2023/02/13 06:49:09;;;;;;;;;;;;;;;17.70;66.01;103034.85;2319999;75;50387;-77
2023/02/13 06:52:10;;;;;;;;;;;;;;;17.75;65.60;103042.05;2320310;76;50741;-77
2023/02/13 06:55:12;;;;;;;;;;;;;;;17.78;65.73;103042.30;2321467;76;51434;-78
2023/02/13 06:58:13;;;;;;;;;;;;;;;17.82;65.18;103047.79;2270468;76;51007;-77
2023/02/13 07:01:15;;;;;;;;;;;;;;;17.82;65.08;103054.48;2309261;76;50211;-76
2023/02/13 07:04:17;;;;;;;;;;;;;;;17.78;65.21;103051.66;2321046;76;50403;-76
2023/02/13 07:07:18;;;;;;;;;;;;;;;17.78;64.97;103055.69;2309095;76;50710;-76
2023/02/13 07:10:20;;;;;;;;;;;;;;;17.75;64.74;103058.11;2283377;76;51167;-76
2023/02/13 07:13:21;;;;;;;;;;;;;;;17.73;64.99;103051.17;2308819;76;50279;-76
2023/02/13 07:16:23;;;;;;;;;;;;;;;17.69;64.89;103054.55;2309102;76;50635;-76
2023/02/13 07:19:25;;;;;;;;;;;;;;;17.68;64.86;103057.36;2321301;76;50259;-76
2023/02/13 07:22:26;;;;;;;;;;;;;;;17.66;64.90;103060.64;2335434;75;50794;-76
2023/02/13 07:25:28;;;;;;;;;;;;;;;17.65;64.86;103061.13;2309184;76;50627;-76
2023/02/13 07:28:29;;;;;;;;;;;;;;;17.62;64.83;103059.54;2299311;76;50398;-76
2023/02/13 07:31:34;;;;;;;;;;;;;;;17.63;64.73;103059.89;2321259;75;50617;-75
2023/02/13 07:34:35;;;;;;;;;;;;;;;17.61;64.67;103065.84;2323652;76;51187;-75
2023/02/13 07:37:37;;;;;;;;;;;;;;;17.64;64.57;103065.61;2321215;76;50006;-76
2023/02/13 07:40:38;;;;;;;;;;;;;;;17.58;64.58;103065.24;2321313;75;50631;-75
2023/02/13 07:43:40;;;;;;;;;;;;;;;17.58;64.57;103071.44;2308906;76;51457;-75
2023/02/13 07:46:42;;;;;;;;;;;;;;;17.58;64.50;103066.09;2283147;76;51849;-76
2023/02/13 07:49:43;;;;;;;;;;;;;;;17.58;64.49;103071.94;2321298;76;51483;-75
2023/02/13 07:52:46;;;;;;;;;;;;;;;17.60;64.37;103072.19;2321234;76;51471;-75
2023/02/13 07:55:48;;;;;;;;;;;;;;;17.66;64.12;103076.21;2321182;76;51367;-76
2023/02/13 07:58:49;;;;;;;;;;;;;;;17.76;63.77;103080.37;2285673;76;50734;-76
2023/02/13 08:01:51;;;;;;;;;;;;;;;17.78;63.64;103076.61;2310063;75;50693;-75
2023/02/13 08:04:53;;;;;;;;;;;;;;;17.77;63.94;103070.87;2319828;76;50623;-76
2023/02/13 08:07:54;;;;;;;;;;;;;;;17.78;63.73;103075.77;2321807;76;51521;-76
2023/02/13 08:14:15;;;;;;;;;;;;;;;17.74;63.71;103084.50;2304916;76;21768;-75
2023/02/13 08:17:17;;;;;;;;;;;;;;;17.68;63.85;103086.33;2277891;77;51438;-76
2023/02/13 08:20:18;;;;;;;;;;;;;;;17.66;63.94;103087.41;2278886;77;51479;-75
2023/02/13 08:23:20;;;;;;;;;;;;;;;17.62;63.94;103080.96;2253419;78;52520;-75
2023/02/13 08:26:22;;;;;;;;;;;;;;;17.61;63.93;103083.25;2307182;75;51497;-74
2023/02/13 08:29:23;;;;;;;;;;;;;;;17.63;63.81;103079.98;2278279;76;50603;-75
2023/02/13 08:32:25;;;;;;;;;;;;;;;17.63;63.78;103080.47;2275227;77;50274;-75
2023/02/13 08:35:28;;;;;;;;;;;;;;;17.62;63.73;103088.11;2249713;78;51025;-75
2023/02/13 08:38:30;;;;;;;;;;;;;;;17.61;63.71;103083.74;2275926;77;51162;-75
2023/02/13 08:41:31;;;;;;;;;;;;;;;17.62;63.59;103079.62;2276394;78;50750;-75
2023/02/13 08:44:33;;;;;;;;;;;;;;;17.62;63.56;103087.66;2274968;77;50519;-74
2023/02/13 08:47:35;;;;;;;;;;;;;;;17.61;63.59;103085.92;2250802;78;50290;-75
2023/02/13 08:50:36;;;;;;;;;;;;;;;17.61;63.58;103081.06;2277608;77;50638;-74
2023/02/13 08:53:38;;;;;;;;;;;;;;;17.59;63.59;103086.52;2276946;77;50794;-73
2023/02/13 08:56:39;;;;;;;;;;;;;;;17.58;63.51;103078.14;2300348;76;50547;-74
2023/02/13 08:59:41;;;;;;;;;;;;;;;17.58;63.51;103075.95;2306540;76;51519;-74
2023/02/13 09:02:42;;;;;;;;;;;;;;;17.68;63.22;103081.46;2309298;76;51467;-75
2023/02/13 09:05:44;;;;;;;;;;;;;;;17.73;63.09;103081.96;2321352;75;51401;-74
2023/02/13 09:08:46;;;;;;;;;;;;;;;17.72;63.04;103078.89;2309191;76;50220;-75
2023/02/13 09:11:47;;;;;;;;;;;;;;;17.74;62.99;103082.31;2323467;76;49588;-74
2023/02/13 09:14:49;;;;;;;;;;;;;;;17.73;63.04;103081.96;2309106;76;50234;-75
2023/02/13 09:17:50;;;;;;;;;;;;;;;17.72;63.03;103078.89;2321229;76;50721;-75
2023/02/13 09:20:53;;;;;;;;;;;;;;;17.68;63.08;103087.66;2309189;76;51356;-75
2023/02/13 09:23:55;;;;;;;;;;;;;;;17.64;63.17;103083.01;2304430;76;52594;-75
2023/02/13 09:26:57;;;;;;;;;;;;;;;17.62;63.24;103087.66;2314627;76;50480;-74
2023/02/13 09:29:58;;;;;;;;;;;;;;;17.60;63.25;103086.91;2309788;76;51453;-74
2023/02/13 09:33:00;;;;;;;;;;;;;;;17.58;63.21;103091.52;2319444;76;51424;-74
2023/02/13 09:36:05;;;;;;;;;;;;;;;17.62;63.16;103096.14;2295205;76;52471;-74
2023/02/13 09:39:07;;;;;;;;;;;;;;;17.67;63.01;103097.14;2319470;75;51538;-74
2023/02/13 09:42:13;;;;;;;;;;;;;;;17.69;62.94;103099.22;2320831;76;51637;-74
2023/02/13 09:45:14;;;;;;;;;;;;;;;17.69;62.91;103097.87;2319639;76;50394;-74
2023/02/13 09:48:29;;;;;;;;;;;;;;;17.70;62.88;103098.23;2319660;76;50395;-75
2023/02/13 09:51:31;;;;;;;;;;;;;;;17.72;62.83;103101.66;2319613;76;51495;-75
2023/02/13 09:54:32;;;;;;;;;;;;;;;17.68;62.94;103101.55;2319377;76;50235;-75
2023/02/13 09:57:35;;;;;;;;;;;;;;;17.61;63.01;103099.31;2314204;76;51529;-75
2023/02/13 10:00:40;;;;;;;;;;;;;;;17.60;63.03;103090.92;2321100;76;51737;-74
2023/02/13 10:03:49;;;;;;;;;;;;;;;17.58;63.07;103088.00;2319332;76;50314;-74
2023/02/13 10:06:55;;;;;;;;;;;;;;;17.57;63.04;103092.50;2319549;75;51379;-76
2023/02/13 10:10:01;;;;;;;;;;;;;;;17.54;63.08;103091.86;2319447;76;51486;-76
2023/02/13 10:13:22;;;;;;;;;;;;;;;17.60;62.94;103088.25;2320417;76;51164;-76
2023/02/13 10:16:25;;;;;;;;;;;;;;;17.66;62.75;103093.61;2319774;76;51549;-75
2023/02/13 10:19:28;;;;;;;;;;;;;;;17.70;62.67;103100.91;2319639;76;50802;-75
2023/02/13 10:22:40;;;;;;;;;;;;;;;17.72;62.58;103092.28;2319307;76;50672;-75
2023/02/13 10:25:56;;;;;;;;;;;;;;;17.68;62.64;103088.16;2295582;76;52595;-75
2023/02/13 10:32:19;;;;;;;;;;;;;;;17.63;62.74;103086.67;2271692;78;22490;-75
2023/02/13 10:35:22;;;;;;;;;;;;;;;17.59;62.74;103093.22;2271528;77;50734;-74
2023/02/13 10:38:24;;;;;;;;;;;;;;;17.57;62.81;103087.16;2247958;78;51871;-74
2023/02/13 10:41:27;;;;;;;;;;;;;;;17.55;62.84;103094.44;2273432;77;50269;-75
2023/02/13 10:44:30;;;;;;;;;;;;;;;17.56;62.87;103082.75;2271213;77;50115;-75
2023/02/13 10:47:33;;;;;;;;;;;;;;;17.60;62.74;103092.27;2271479;77;50684;-75
2023/02/13 10:50:36;;;;;;;;;;;;;;;17.70;62.43;103083.52;2271606;77;50773;-75
2023/02/13 10:53:54;;;;;;;;;;;;;;;17.77;62.18;103082.07;2271254;77;51596;-75
2023/02/13 10:56:57;;;;;;;;;;;;;;;17.77;62.12;103076.72;2297021;76;50382;-75
2023/02/13 11:00:10;;;;;;;;;;;;;;;17.71;62.25;103072.70;2304829;76;50304;-75
2023/02/13 11:03:16;;;;;;;;;;;;;;;17.68;62.35;103070.26;2286714;76;50832;-75
2023/02/13 11:06:19;;;;;;;;;;;;;;;17.68;62.44;103066.73;2286046;76;50302;-74
2023/02/13 11:09:20;;;;;;;;;;;;;;;17.73;62.29;103061.88;2285729;77;50807;-75
2023/02/13 11:12:26;;;;;;;;;;;;;;;17.67;62.43;103067.69;2262245;77;52527;-75
2023/02/13 11:15:29;;;;;;;;;;;;;;;17.63;62.47;103063.06;2262034;78;51203;-75
2023/02/13 11:18:34;;;;;;;;;;;;;;;17.58;62.64;103059.39;2285809;76;51490;-78
2023/02/13 11:21:37;;;;;;;;;;;;;;;17.60;62.62;103058.80;2285861;77;52548;-75
2023/02/13 11:24:39;;;;;;;;;;;;;;;17.70;62.22;103053.59;2262228;77;51294;-76
2023/02/13 11:27:41;;;;;;;;;;;;;;;17.80;61.90;103053.28;2292198;75;51240;-76
2023/02/13 11:30:42;;;;;;;;;;;;;;;17.84;61.75;103052.55;2299465;76;50457;-75
2023/02/13 11:33:44;;;;;;;;;;;;;;;17.81;61.76;103048.28;2296113;76;50626;-74
2023/02/13 11:36:46;;;;;;;;;;;;;;;17.76;61.98;103049.59;2296193;76;50653;-75
2023/02/13 11:39:48;;;;;;;;;;;;;;;17.73;62.08;103051.17;2265251;76;51624;-75
2023/02/13 11:42:50;;;;;;;;;;;;;;;17.72;62.06;103042.25;2290034;76;51407;-75
2023/02/13 11:46:02;;;;;;;;;;;;;;;17.72;62.10;103042.75;2295998;76;51492;-75
2023/02/13 11:49:04;;;;;;;;;;;;;;;17.70;62.13;103042.01;2285992;76;51500;-75
2023/02/13 11:52:06;;;;;;;;;;;;;;;17.65;62.24;103039.71;2261962;78;52617;-75
2023/02/13 11:55:18;;;;;;;;;;;;;;;17.62;62.35;103035.45;2285586;76;50294;-75
2023/02/13 11:58:24;;;;;;;;;;;;;;;17.69;62.03;103031.79;2282085;76;50041;-75
2023/02/13 12:01:27;;;;;;;;;;;;;;;17.77;61.74;103027.17;2290002;76;50332;-75
2023/02/13 12:04:28;;;;;;;;;;;;;;;17.86;61.47;103035.88;2257647;77;51796;-74
2023/02/13 12:07:31;;;;;;;;;;;;;;;17.84;61.47;103034.64;2263740;77;50414;-75
2023/02/13 12:10:32;;;;;;;;;;;;;;;17.79;61.57;103024.78;2263948;77;51615;-76
2023/02/13 12:13:35;;;;;;;;;;;;;;;17.76;61.67;103028.16;2263604;77;51438;-76
2023/02/13 12:16:56;;;;;;;;;;;;;;;17.74;61.72;103030.09;2239125;78;50954;-76
2023/02/13 12:19:58;;;;;;;;;;;;;;;17.72;61.80;103036.90;2264430;77;50708;-76
2023/02/13 12:23:01;;;;;;;;;;;;;;;17.71;61.84;103037.88;2264003;78;51398;-75
2023/02/13 12:26:13;;;;;;;;;;;;;;;17.64;62.08;103035.31;2281803;77;51550;-76
2023/02/13 12:29:16;;;;;;;;;;;;;;;17.61;62.15;103028.36;2279558;77;50329;-77
2023/02/13 12:32:22;;;;;;;;;;;;;;;17.61;62.05;103023.50;2282555;78;50565;-76
2023/02/13 12:35:26;;;;;;;;;;;;;;;17.70;61.81;103028.62;2312527;76;50431;-76
2023/02/13 12:38:48;;;;;;;;;;;;;;;17.78;61.51;103028.91;2329702;76;50343;-77
2023/02/13 12:41:52;;;;;;;;;;;;;;;17.80;61.38;103028.30;2328638;76;50857;-76
2023/02/13 12:45:04;;;;;;;;;;;;;;;17.81;61.32;103024.67;2328433;76;52852;-75
2023/02/13 12:48:25;;;;;;;;;;;;;;;17.77;61.44;103027.17;2328704;76;50382;-76
2023/02/13 12:51:29;;;;;;;;;;;;;;;17.70;61.58;103032.17;2329847;76;51626;-76
2023/02/13 12:54:36;;;;;;;;;;;;;;;17.68;61.67;103033.27;2298195;76;51062;-75
2023/02/13 12:57:56;;;;;;;;;;;;;;;17.64;61.77;103026.78;2320272;75;50661;-76
2023/02/13 13:01:16;;;;;;;;;;;;;;;17.63;61.88;103030.45;2315151;76;50745;-75
2023/02/13 13:04:22;;;;;;;;;;;;;;;17.59;61.97;103020.93;2310147;76;50324;-78
2023/02/13 13:07:42;;;;;;;;;;;;;;;17.61;61.85;103012.30;2283473;77;51797;-77
2023/02/13 13:11:03;;;;;;;;;;;;;;;17.69;61.54;103017.06;2312302;77;51473;-76
2023/02/13 13:14:12;;;;;;;;;;;;;;;17.82;61.18;103023.69;2312277;76;50433;-76
2023/02/13 13:17:31;;;;;;;;;;;;;;;17.87;60.93;103018.82;2308333;77;50293;-76
2023/02/13 13:20:51;;;;;;;;;;;;;;;17.87;60.94;103014.80;2280255;77;49642;-76
2023/02/13 13:23:59;;;;;;;;;;;;;;;17.90;60.90;103021.75;2301488;76;51608;-76
2023/02/13 13:27:00;;;;;;;;;;;;;;;17.84;60.94;103029.29;2300848;76;50059;-77
2023/02/13 13:30:04;;;;;;;;;;;;;;;17.77;61.16;103021.82;2285940;76;51511;-76
2023/02/13 13:33:07;;;;;;;;;;;;;;;17.74;61.22;103018.05;2262766;77;51374;-75
2023/02/13 13:36:10;;;;;;;;;;;;;;;17.70;61.42;103024.14;2285884;76;51488;-75
2023/02/13 13:39:13;;;;;;;;;;;;;;;17.66;61.54;103028.52;2286249;77;50881;-76
2023/02/13 13:42:19;;;;;;;;;;;;;;;17.63;61.60;103025.09;2285858;76;50814;-77
2023/02/13 13:45:39;;;;;;;;;;;;;;;17.71;61.38;103029.00;2262349;78;51118;-77
2023/02/13 13:49:01;;;;;;;;;;;;;;;17.78;61.07;103030.23;2286167;76;50714;-77
2023/02/13 13:52:09;;;;;;;;;;;;;;;17.83;60.88;103021.39;2327800;75;51434;-76
2023/02/13 13:55:12;;;;;;;;;;;;;;;17.85;60.77;103016.74;2328282;75;50300;-76
2023/02/13 13:58:24;;;;;;;;;;;;;;;17.86;60.71;103015.79;2277409;77;51219;-77
2023/02/13 14:01:31;;;;;;;;;;;;;;;17.87;60.69;103022.00;2295748;76;50952;-76
2023/02/13 14:04:34;;;;;;;;;;;;;;;17.80;60.89;103024.28;2307473;77;22919;-76
2023/02/13 14:07:37;;;;;;;;;;;;;;;17.71;61.06;103014.28;2311363;76;51567;-76
2023/02/13 14:10:43;;;;;;;;;;;;;;;17.73;61.11;103006.98;2311377;77;51452;-77
2023/02/13 14:13:45;;;;;;;;;;;;;;;17.66;61.36;103007.09;2274151;77;51496;-76
2023/02/13 14:16:48;;;;;;;;;;;;;;;17.66;61.35;103001.73;2311674;77;51501;-76
2023/02/13 14:19:51;;;;;;;;;;;;;;;17.68;61.24;103001.14;2311739;76;50212;-77
2023/02/13 14:22:52;;;;;;;;;;;;;;;17.75;61.01;102995.64;2275623;77;51075;-76
2023/02/13 14:26:11;;;;;;;;;;;;;;;17.86;60.68;102997.53;2290660;76;50516;-77
2023/02/13 14:29:27;;;;;;;;;;;;;;;17.90;60.54;102994.96;2326149;75;51406;-76
2023/02/13 14:32:31;;;;;;;;;;;;;;;17.89;60.49;102996.80;2313412;77;51640;-76
2023/02/13 14:35:34;;;;;;;;;;;;;;;17.89;60.45;102981.22;2287560;77;52380;-76
2023/02/13 14:38:35;;;;;;;;;;;;;;;17.88;60.45;102975.48;2313349;75;50658;-76
2023/02/13 14:41:45;;;;;;;;;;;;;;;17.87;60.46;102971.11;2313819;77;51161;-76
2023/02/13 14:44:48;;;;;;;;;;;;;;;17.79;60.63;102974.36;2313594;77;51562;-76
2023/02/13 14:47:52;;;;;;;;;;;;;;;17.75;60.77;102977.78;2313598;75;52404;-76
2023/02/13 14:50:56;;;;;;;;;;;;;;;17.69;61.03;102978.23;2287787;77;51790;-75
2023/02/13 14:54:01;;;;;;;;;;;;;;;17.69;60.97;102980.07;2313843;76;22777;-76
2023/02/13 14:57:08;;;;;;;;;;;;;;;17.69;61.00;102974.72;2338362;75;51457;-75
2023/02/13 15:00:27;;;;;;;;;;;;;;;17.77;60.77;102969.60;2342036;75;50675;-77
2023/02/13 15:03:33;;;;;;;;;;;;;;;17.84;60.49;102969.03;2300762;77;51220;-76
2023/02/13 15:06:36;;;;;;;;;;;;;;;17.86;60.44;102966.24;2314715;75;51392;-76
2023/02/13 15:09:38;;;;;;;;;;;;;;;17.90;60.29;102973.04;2313658;76;50743;-76
2023/02/13 15:12:40;;;;;;;;;;;;;;;17.89;60.24;102968.67;2314424;77;50196;-76
2023/02/13 15:15:42;;;;;;;;;;;;;;;17.87;60.27;102975.97;2314553;76;50316;-76
2023/02/13 15:18:48;;;;;;;;;;;;;;;17.86;60.28;102970.26;2314704;77;50222;-76
2023/02/13 15:21:54;;;;;;;;;;;;;;;17.79;60.43;102953.81;2315045;75;50603;-76
2023/02/13 15:24:55;;;;;;;;;;;;;;;17.73;60.65;102950.27;2314319;75;51495;-77
2023/02/13 15:27:58;;;;;;;;;;;;;;;17.70;60.79;102937.59;2319559;76;51479;-75
2023/02/13 15:31:04;;;;;;;;;;;;;;;17.69;60.83;102944.77;2328406;76;50799;-76
2023/02/13 15:34:07;;;;;;;;;;;;;;;17.72;60.73;102943.19;2336814;76;50821;-76
2023/02/13 15:37:10;;;;;;;;;;;;;;;17.81;60.46;102941.66;2325355;75;50305;-76
2023/02/13 15:40:16;;;;;;;;;;;;;;;17.89;60.25;102942.38;2297840;76;51100;-75
2023/02/13 15:43:22;;;;;;;;;;;;;;;17.92;60.10;102934.09;2324474;76;51470;-76
2023/02/13 15:46:30;;;;;;;;;;;;;;;17.93;60.01;102931.31;2324285;76;52233;-76
2023/02/13 15:49:33;;;;;;;;;;;;;;;17.92;60.04;102926.91;2323015;76;52233;-74
2023/02/13 15:52:36;;;;;;;;;;;;;;;17.92;60.12;102931.42;2322616;76;51507;-76
2023/02/13 15:55:38;;;;;;;;;;;;;;;17.93;60.01;102935.33;2324148;76;50742;-75
2023/02/13 15:58:39;;;;;;;;;;;;;;;17.89;60.12;102931.67;2318547;76;51525;-75
2023/02/13 16:01:43;;;;;;;;;;;;;;;17.84;60.27;102926.67;2306180;77;50368;-75
2023/02/13 16:04:45;;;;;;;;;;;;;;;17.78;60.46;102932.50;2321836;75;52403;-76
2023/02/13 16:07:47;;;;;;;;;;;;;;;17.73;60.62;102933.35;2315709;75;51395;-75
2023/02/13 16:10:49;;;;;;;;;;;;;;;17.78;60.51;102939.19;2315725;75;50320;-76
2023/02/13 16:13:55;;;;;;;;;;;;;;;17.84;60.37;102932.88;2315499;75;50711;-76
2023/02/13 16:16:58;;;;;;;;;;;;;;;17.91;60.19;102928.39;2295922;76;51247;-75
2023/02/13 16:20:00;;;;;;;;;;;;;;;17.95;60.03;102934.69;2315751;75;50489;-76
2023/02/13 16:23:02;;;;;;;;;;;;;;;17.98;59.92;102939.83;2315835;75;50687;-76
2023/02/13 16:26:05;;;;;;;;;;;;;;;17.98;59.88;102948.33;2324939;76;50765;-76
2023/02/13 16:29:08;;;;;;;;;;;;;;;17.96;59.89;102948.96;2295169;76;52484;-76
2023/02/13 16:32:11;;;;;;;;;;;;;;;17.95;59.93;102954.78;2297754;76;50674;-75
2023/02/13 16:35:27;;;;;;;;;;;;;;;17.85;60.36;102953.81;2297868;76;50657;-80
2023/02/13 16:38:32;;;;;;;;;;;;;;;17.85;60.61;102945.77;2297986;76;51503;-77
2023/02/13 16:41:34;;;;;;;;;;;;;;;17.85;60.69;102951.13;2276315;76;51777;-73